Private Wetterstation Sandau
Wetterdaten: Sonntag, 24.02.2013
Datum Zeit Temp. A. Feuchte A. Luftdruck Regen Wind Richtung Richtung Taupunkt Windchill
24.02.2013 00:01 -0,9 C 91 % 1015,3 hPa 0,0 l/m 12,2 km/h (2 Bft) O-NO 67 -2,2 C -4,9 C
24.02.2013 00:06 -0,9 C 91 % 1015,4 hPa 0,0 l/m 5,8 km/h (2 Bft) O-NO 67 -2,2 C -3,0 C
24.02.2013 00:11 -0,9 C 91 % 1015,5 hPa 0,0 l/m 3,2 km/h (1 Bft) O-NO 67 -2,2 C -0,9 C
24.02.2013 00:16 -0,9 C 91 % 1015,5 hPa 0,0 l/m 3,6 km/h (1 Bft) NO 45 -2,2 C -0,9 C
24.02.2013 00:21 -0,9 C 91 % 1015,3 hPa 0,0 l/m 4,3 km/h (1 Bft) NO 45 -2,2 C -0,9 C
24.02.2013 00:26 -0,9 C 91 % 1015,4 hPa 0,0 l/m 3,2 km/h (1 Bft) O-NO 67 -2,2 C -0,9 C
24.02.2013 00:31 -0,9 C 91 % 1015,5 hPa 0,0 l/m 4,0 km/h (1 Bft) N 360 -2,2 C -0,9 C
24.02.2013 00:36 -0,8 C 91 % 1015,6 hPa 0,0 l/m 5,4 km/h (1 Bft) NO 45 -2,1 C -2,7 C
24.02.2013 00:41 -0,9 C 91 % 1015,6 hPa 0,0 l/m 2,9 km/h (1 Bft) O-NO 67 -2,2 C -0,9 C
24.02.2013 00:46 -0,8 C 91 % 1015,4 hPa 0,0 l/m 5,0 km/h (1 Bft) NO 45 -2,1 C -2,5 C
24.02.2013 00:51 -0,8 C 91 % 1015,4 hPa 0,0 l/m 6,1 km/h (2 Bft) O-NO 67 -2,1 C -3,0 C
24.02.2013 00:56 -0,8 C 91 % 1015,5 hPa 0,0 l/m 4,0 km/h (1 Bft) O-NO 67 -2,1 C -0,8 C
24.02.2013 01:01 -0,8 C 91 % 1015,4 hPa 0,0 l/m 2,2 km/h (1 Bft) O-NO 67 -2,1 C -0,8 C
24.02.2013 01:06 -0,7 C 91 % 1015,5 hPa 0,0 l/m 5,0 km/h (1 Bft) O-NO 67 -2,0 C -2,4 C
24.02.2013 01:11 -0,7 C 91 % 1015,2 hPa 0,0 l/m 6,1 km/h (2 Bft) O-NO 67 -2,0 C -2,9 C
24.02.2013 01:16 -0,7 C 91 % 1015,4 hPa 0,0 l/m 5,0 km/h (1 Bft) O-NO 67 -2,0 C -2,4 C
24.02.2013 01:21 -0,7 C 91 % 1015,3 hPa 0,0 l/m 9,4 km/h (2 Bft) O-NO 67 -2,0 C -4,0 C
24.02.2013 01:26 -0,7 C 91 % 1015,3 hPa 0,0 l/m 10,1 km/h (2 Bft) NO 45 -2,0 C -4,2 C
24.02.2013 01:31 -0,7 C 91 % 1015,3 hPa 0,0 l/m 7,9 km/h (2 Bft) O-NO 67 -2,0 C -3,5 C
24.02.2013 01:36 -0,7 C 91 % 1015,3 hPa 0,0 l/m 8,6 km/h (2 Bft) NO 45 -2,0 C -3,7 C
24.02.2013 01:41 -0,7 C 91 % 1015,1 hPa 0,0 l/m 4,7 km/h (1 Bft) O-NO 67 -2,0 C -2,2 C
24.02.2013 01:46 -0,7 C 91 % 1014,9 hPa 0,0 l/m 4,0 km/h (1 Bft) O-NO 67 -2,0 C -0,7 C
24.02.2013 01:51 -0,7 C 91 % 1014,8 hPa 0,0 l/m 15,8 km/h (3 Bft) O-NO 67 -2,0 C -5,4 C
24.02.2013 01:56 -0,7 C 91 % 1015,0 hPa 0,0 l/m 5,8 km/h (2 Bft) NO 45 -2,0 C -2,7 C
24.02.2013 02:01 -0,7 C 91 % 1014,9 hPa 0,0 l/m 5,4 km/h (1 Bft) NO 45 -2,0 C -2,6 C
24.02.2013 02:06 -0,6 C 91 % 1014,9 hPa 0,0 l/m 4,7 km/h (1 Bft) O-NO 67 -1,9 C -2,1 C
24.02.2013 02:11 -0,6 C 91 % 1014,9 hPa 0,0 l/m 6,8 km/h (2 Bft) O-NO 67 -1,9 C -3,0 C
24.02.2013 02:16 -0,6 C 91 % 1015,0 hPa 0,0 l/m 4,3 km/h (1 Bft) O-NO 67 -1,9 C -0,6 C
24.02.2013 02:21 -0,6 C 91 % 1015,1 hPa 0,0 l/m 6,5 km/h (2 Bft) O-NO 67 -1,9 C -2,9 C
24.02.2013 02:26 -0,6 C 91 % 1014,9 hPa 0,0 l/m 9,7 km/h (2 Bft) O-NO 67 -1,9 C -3,9 C
24.02.2013 02:31 -0,5 C 91 % 1015,0 hPa 0,0 l/m 10,1 km/h (2 Bft) O-NO 67 -1,8 C -3,9 C
24.02.2013 02:36 -0,5 C 91 % 1015,0 hPa 0,0 l/m 10,1 km/h (2 Bft) NO 45 -1,8 C -3,9 C
24.02.2013 02:41 -0,5 C 91 % 1014,9 hPa 0,0 l/m 7,6 km/h (2 Bft) O-NO 67 -1,8 C -3,2 C
24.02.2013 02:46 -0,5 C 91 % 1014,8 hPa 0,0 l/m 4,0 km/h (1 Bft) NO 45 -1,8 C -0,5 C
24.02.2013 02:51 -0,5 C 91 % 1014,8 hPa 0,0 l/m 8,6 km/h (2 Bft) O-NO 67 -1,8 C -3,5 C
24.02.2013 02:56 -0,5 C 91 % 1014,9 hPa 0,0 l/m 8,3 km/h (2 Bft) O-NO 67 -1,8 C -3,4 C
24.02.2013 03:01 -0,4 C 91 % 1014,9 hPa 0,0 l/m 7,2 km/h (2 Bft) O 90 -1,7 C -2,9 C
24.02.2013 03:06 -0,4 C 91 % 1014,6 hPa 0,0 l/m 7,9 km/h (2 Bft) O-NO 67 -1,7 C -3,2 C
24.02.2013 03:11 -0,4 C 91 % 1014,7 hPa 0,0 l/m 3,2 km/h (1 Bft) O-NO 67 -1,7 C -0,4 C
24.02.2013 03:16 -0,4 C 90 % 1014,9 hPa 0,0 l/m 8,3 km/h (2 Bft) NO 45 -1,8 C -3,3 C
24.02.2013 03:21 -0,4 C 90 % 1014,9 hPa 0,0 l/m 5,8 km/h (2 Bft) NO 45 -1,8 C -2,4 C
24.02.2013 03:26 -0,3 C 90 % 1014,9 hPa 0,0 l/m 6,8 km/h (2 Bft) O-NO 67 -1,7 C -2,7 C
24.02.2013 03:31 -0,2 C 90 % 1015,0 hPa 0,0 l/m 5,4 km/h (1 Bft) N-NO 22 -1,6 C -2,0 C
24.02.2013 03:36 -0,2 C 90 % 1015,1 hPa 0,0 l/m 4,0 km/h (1 Bft) O-NO 67 -1,6 C -0,2 C
24.02.2013 03:41 -0,2 C 90 % 1015,2 hPa 0,0 l/m 2,9 km/h (1 Bft) S-SO 157 -1,6 C -0,2 C
24.02.2013 03:46 -0,2 C 90 % 1015,3 hPa 0,0 l/m 7,6 km/h (2 Bft) O-NO 67 -1,6 C -2,8 C
24.02.2013 03:51 -0,2 C 90 % 1015,4 hPa 0,0 l/m 4,0 km/h (1 Bft) O-NO 67 -1,6 C -0,2 C
24.02.2013 03:56 -0,2 C 90 % 1015,1 hPa 0,0 l/m 6,8 km/h (2 Bft) NO 45 -1,6 C -2,6 C
24.02.2013 04:01 -0,2 C 90 % 1015,0 hPa 0,0 l/m 4,7 km/h (1 Bft) NO 45 -1,6 C -1,7 C
24.02.2013 04:06 -0,2 C 90 % 1014,9 hPa 0,0 l/m 6,1 km/h (2 Bft) NO 45 -1,6 C -2,3 C
24.02.2013 04:11 -0,2 C 90 % 1015,0 hPa 0,0 l/m 10,4 km/h (2 Bft) O-NO 67 -1,6 C -3,7 C
24.02.2013 04:16 -0,2 C 90 % 1014,9 hPa 0,0 l/m 6,1 km/h (2 Bft) O-NO 67 -1,6 C -2,3 C
24.02.2013 04:21 -0,2 C 90 % 1014,9 hPa 0,0 l/m 9,7 km/h (2 Bft) O-NO 67 -1,6 C -3,5 C
24.02.2013 04:26 -0,2 C 91 % 1014,8 hPa 0,0 l/m 7,9 km/h (2 Bft) O-NO 67 -1,5 C -2,9 C
24.02.2013 04:31 -0,1 C 91 % 1014,9 hPa 0,0 l/m 5,4 km/h (1 Bft) NO 45 -1,4 C -1,9 C
24.02.2013 04:36 -0,2 C 91 % 1014,9 hPa 0,0 l/m 6,1 km/h (2 Bft) O-NO 67 -1,5 C -2,3 C
24.02.2013 04:41 -0,1 C 91 % 1014,9 hPa 0,0 l/m 8,3 km/h (2 Bft) O 90 -1,4 C -2,9 C
24.02.2013 04:46 -0,1 C 91 % 1015,0 hPa 0,0 l/m 8,3 km/h (2 Bft) O-NO 67 -1,4 C -2,9 C
24.02.2013 04:51 -0,1 C 91 % 1014,8 hPa 0,0 l/m 6,5 km/h (2 Bft) NO 45 -1,4 C -2,3 C
24.02.2013 04:56 -0,1 C 91 % 1014,9 hPa 0,0 l/m 11,5 km/h (2 Bft) O-NO 67 -1,4 C -3,8 C
24.02.2013 05:01 -0,1 C 91 % 1014,9 hPa 0,0 l/m 5,0 km/h (1 Bft) O-NO 67 -1,4 C -1,7 C
24.02.2013 05:06 -0,1 C 91 % 1014,9 hPa 0,0 l/m 8,6 km/h (2 Bft) NO 45 -1,4 C -3,0 C
24.02.2013 05:11 -0,1 C 91 % 1015,0 hPa 0,0 l/m 8,3 km/h (2 Bft) NO 45 -1,4 C -2,9 C
24.02.2013 05:16 -0,1 C 91 % 1015,0 hPa 0,0 l/m 4,3 km/h (1 Bft) O-NO 67 -1,4 C -0,1 C
24.02.2013 05:21 -0,1 C 91 % 1015,1 hPa 0,0 l/m 4,3 km/h (1 Bft) O-NO 67 -1,4 C -0,1 C
24.02.2013 05:26 -0,1 C 92 % 1015,2 hPa 0,0 l/m 5,0 km/h (1 Bft) O-NO 67 -1,2 C -1,7 C
24.02.2013 05:31 -0,1 C 92 % 1015,0 hPa 0,0 l/m 6,1 km/h (2 Bft) O 90 -1,2 C -2,2 C
24.02.2013 05:36 -0,1 C 92 % 1014,9 hPa 0,0 l/m 4,0 km/h (1 Bft) SO 135 -1,2 C -0,1 C
24.02.2013 05:41 -0,1 C 92 % 1014,9 hPa 0,0 l/m 6,5 km/h (2 Bft) N-NO 22 -1,2 C -2,3 C
24.02.2013 05:46 -0,1 C 92 % 1014,8 hPa 0,0 l/m 4,7 km/h (1 Bft) NO 45 -1,2 C -1,6 C
24.02.2013 05:51 -0,1 C 92 % 1014,8 hPa 0,0 l/m 4,3 km/h (1 Bft) O-NO 67 -1,2 C -0,1 C
24.02.2013 05:56 -0,1 C 92 % 1014,9 hPa 0,0 l/m 12,2 km/h (2 Bft) NO 45 -1,2 C -4,0 C
24.02.2013 06:01 -0,1 C 92 % 1014,9 hPa 0,0 l/m 6,1 km/h (2 Bft) O-NO 67 -1,2 C -2,2 C
24.02.2013 06:06 -0,1 C 92 % 1014,8 hPa 0,0 l/m 9,7 km/h (2 Bft) O-NO 67 -1,2 C -3,4 C
24.02.2013 06:11 -0,1 C 92 % 1014,7 hPa 0,0 l/m 4,0 km/h (1 Bft) NO 45 -1,2 C -0,1 C
24.02.2013 06:16 -0,1 C 92 % 1014,6 hPa 0,0 l/m 4,3 km/h (1 Bft) NO 45 -1,2 C -0,1 C
24.02.2013 06:21 -0,1 C 92 % 1014,7 hPa 0,0 l/m 4,0 km/h (1 Bft) O-SO 112 -1,2 C -0,1 C
24.02.2013 06:26 -0,1 C 92 % 1014,6 hPa 0,0 l/m 2,9 km/h (1 Bft) NO 45 -1,2 C -0,1 C
24.02.2013 06:31 -0,1 C 92 % 1014,7 hPa 0,0 l/m 7,6 km/h (2 Bft) O-NO 67 -1,2 C -2,7 C
24.02.2013 06:36 -0,1 C 92 % 1014,7 hPa 0,0 l/m 6,1 km/h (2 Bft) O-NO 67 -1,2 C -2,2 C
24.02.2013 06:41 -0,1 C 92 % 1014,6 hPa 0,0 l/m 5,8 km/h (2 Bft) NO 45 -1,2 C -2,1 C
24.02.2013 06:46 -0,1 C 92 % 1014,6 hPa 0,0 l/m 9,0 km/h (2 Bft) O-NO 67 -1,2 C -3,2 C
24.02.2013 06:51 -0,1 C 92 % 1014,6 hPa 0,0 l/m 8,3 km/h (2 Bft) O-NO 67 -1,2 C -2,9 C
24.02.2013 06:56 -0,1 C 92 % 1014,7 hPa 0,0 l/m 6,8 km/h (2 Bft) O-NO 67 -1,2 C -2,4 C
24.02.2013 07:01 -0,1 C 92 % 1014,6 hPa 0,0 l/m 4,7 km/h (1 Bft) NO 45 -1,2 C -1,6 C
24.02.2013 07:06 -0,1 C 92 % 1014,7 hPa 0,0 l/m 5,4 km/h (1 Bft) NO 45 -1,2 C -1,9 C
24.02.2013 07:11 -0,1 C 92 % 1014,9 hPa 0,0 l/m 3,6 km/h (1 Bft) O-NO 67 -1,2 C -0,1 C
24.02.2013 07:16 -0,1 C 92 % 1014,9 hPa 0,0 l/m 6,5 km/h (2 Bft) NO 45 -1,2 C -2,3 C
24.02.2013 07:21 -0,1 C 93 % 1015,0 hPa 0,0 l/m 6,1 km/h (2 Bft) NO 45 -1,1 C -2,2 C
24.02.2013 07:26 -0,1 C 93 % 1014,6 hPa 0,0 l/m 6,1 km/h (2 Bft) O-NO 67 -1,1 C -2,2 C
24.02.2013 07:31 -0,1 C 93 % 1014,5 hPa 0,0 l/m 9,4 km/h (2 Bft) NO 45 -1,1 C -3,3 C
24.02.2013 07:36 0,0 C 93 % 1014,6 hPa 0,0 l/m 2,2 km/h (1 Bft) N-NO 22 -1,0 C 0,0 C
24.02.2013 07:41 0,1 C 93 % 1014,6 hPa 0,0 l/m 6,5 km/h (2 Bft) N-NO 22 -0,9 C -2,1 C
24.02.2013 07:46 0,1 C 93 % 1014,7 hPa 0,0 l/m 4,7 km/h (1 Bft) O-NO 67 -0,9 C -1,3 C
24.02.2013 07:51 0,1 C 93 % 1014,8 hPa 0,0 l/m 3,2 km/h (1 Bft) NO 45 -0,9 C 0,1 C
24.02.2013 07:56 0,1 C 93 % 1014,9 hPa 0,0 l/m 10,8 km/h (2 Bft) O-SO 112 -0,9 C -3,4 C
24.02.2013 08:01 0,1 C 93 % 1014,9 hPa 0,0 l/m 5,8 km/h (2 Bft) NO 45 -0,9 C -1,8 C
24.02.2013 08:06 0,1 C 93 % 1015,0 hPa 0,0 l/m 7,6 km/h (2 Bft) O-SO 112 -0,9 C -2,5 C
24.02.2013 08:11 0,1 C 93 % 1015,0 hPa 0,0 l/m 5,4 km/h (1 Bft) O-NO 67 -0,9 C -1,7 C
24.02.2013 08:16 0,2 C 93 % 1015,0 hPa 0,0 l/m 1,4 km/h (1 Bft) NO 45 -0,8 C 0,2 C
24.02.2013 08:21 0,2 C 93 % 1015,2 hPa 0,0 l/m 4,3 km/h (1 Bft) O-NO 67 -0,8 C 0,2 C
24.02.2013 08:26 0,3 C 93 % 1015,2 hPa 0,0 l/m 1,8 km/h (1 Bft) O-NO 67 -0,7 C 0,3 C
24.02.2013 08:31 0,3 C 93 % 1015,2 hPa 0,0 l/m 2,9 km/h (1 Bft) O-NO 67 -0,7 C 0,3 C
24.02.2013 08:36 0,3 C 93 % 1015,3 hPa 0,0 l/m 9,7 km/h (2 Bft) N-NO 22 -0,7 C -2,9 C
24.02.2013 08:41 0,4 C 93 % 1015,3 hPa 0,0 l/m 5,8 km/h (2 Bft) O-NO 67 -0,6 C -1,5 C
24.02.2013 08:46 0,4 C 93 % 1015,3 hPa 0,0 l/m 4,7 km/h (1 Bft) NO 45 -0,6 C -1,0 C
24.02.2013 08:51 0,4 C 93 % 1015,3 hPa 0,0 l/m 9,4 km/h (2 Bft) NO 45 -0,6 C -2,7 C
24.02.2013 08:56 0,4 C 93 % 1015,4 hPa 0,0 l/m 8,6 km/h (2 Bft) O-NO 67 -0,6 C -2,5 C
24.02.2013 09:01 0,4 C 93 % 1015,5 hPa 0,0 l/m 4,7 km/h (1 Bft) SO 135 -0,6 C -1,0 C
24.02.2013 09:06 0,4 C 93 % 1015,4 hPa 0,0 l/m 5,8 km/h (2 Bft) O-NO 67 -0,6 C -1,5 C
24.02.2013 09:11 0,4 C 93 % 1015,5 hPa 0,0 l/m 4,0 km/h (1 Bft) O-NO 67 -0,6 C 0,4 C
24.02.2013 09:16 0,4 C 93 % 1015,4 hPa 0,0 l/m 11,2 km/h (2 Bft) O 90 -0,6 C -3,1 C
24.02.2013 09:21 0,5 C 93 % 1015,6 hPa 0,0 l/m 8,3 km/h (2 Bft) NO 45 -0,5 C -2,2 C
24.02.2013 09:26 0,6 C 93 % 1015,4 hPa 0,0 l/m 4,7 km/h (1 Bft) NO 45 -0,4 C -0,8 C
24.02.2013 09:31 0,5 C 93 % 1015,4 hPa 0,0 l/m 5,0 km/h (1 Bft) O-NO 67 -0,5 C -1,0 C
24.02.2013 09:36 0,6 C 93 % 1015,3 hPa 0,0 l/m 9,0 km/h (2 Bft) O-NO 67 -0,4 C -2,3 C
24.02.2013 09:41 0,6 C 93 % 1015,3 hPa 0,0 l/m 5,8 km/h (2 Bft) O-NO 67 -0,4 C -1,3 C
24.02.2013 09:46 0,6 C 93 % 1015,6 hPa 0,0 l/m 2,9 km/h (1 Bft) NO 45 -0,4 C 0,6 C
24.02.2013 09:51 0,8 C 93 % 1015,6 hPa 0,0 l/m 4,7 km/h (1 Bft) O-NO 67 -0,2 C -0,5 C
24.02.2013 09:56 0,8 C 93 % 1015,5 hPa 0,0 l/m 15,5 km/h (3 Bft) O-NO 67 -0,2 C -3,5 C
24.02.2013 10:01 0,8 C 93 % 1015,5 hPa 0,0 l/m 9,4 km/h (2 Bft) O-NO 67 -0,2 C -2,2 C
24.02.2013 10:06 0,9 C 93 % 1015,5 hPa 0,0 l/m 4,0 km/h (1 Bft) NO 45 -0,1 C 0,9 C
24.02.2013 10:11 0,9 C 93 % 1015,5 hPa 0,0 l/m 4,3 km/h (1 Bft) O-NO 67 -0,1 C 0,9 C
24.02.2013 10:16 0,9 C 93 % 1015,6 hPa 0,0 l/m 4,7 km/h (1 Bft) O-NO 67 -0,1 C -0,4 C
24.02.2013 10:21 0,9 C 92 % 1015,6 hPa 0,0 l/m 11,9 km/h (2 Bft) O-NO 67 -0,2 C -2,7 C
24.02.2013 10:26 0,9 C 92 % 1015,6 hPa 0,0 l/m 7,2 km/h (2 Bft) O-NO 67 -0,2 C -1,4 C
24.02.2013 10:31 0,9 C 92 % 1015,5 hPa 0,0 l/m 9,7 km/h (2 Bft) O-NO 67 -0,2 C -2,2 C
24.02.2013 10:36 1,0 C 92 % 1015,4 hPa 0,0 l/m 3,6 km/h (1 Bft) O-NO 67 -0,2 C 1,0 C
24.02.2013 10:41 1,1 C 92 % 1015,5 hPa 0,0 l/m 11,5 km/h (2 Bft) O-NO 67 -0,1 C -2,4 C
24.02.2013 10:46 1,2 C 92 % 1015,6 hPa 0,0 l/m 10,8 km/h (2 Bft) O-NO 67 0,0 C -2,1 C
24.02.2013 10:51 1,1 C 92 % 1015,7 hPa 0,0 l/m 5,4 km/h (1 Bft) NO 45 -0,1 C -0,5 C
24.02.2013 10:56 1,1 C 92 % 1015,6 hPa 0,0 l/m 8,3 km/h (2 Bft) O-NO 67 -0,1 C -1,5 C
24.02.2013 11:01 1,1 C 92 % 1015,6 hPa 0,0 l/m 12,2 km/h (2 Bft) NO 45 -0,1 C -2,5 C
24.02.2013 11:06 1,1 C 92 % 1015,6 hPa 0,0 l/m 6,1 km/h (2 Bft) NO 45 -0,1 C -0,8 C
24.02.2013 11:11 1,1 C 92 % 1015,6 hPa 0,0 l/m 6,8 km/h (2 Bft) NO 45 -0,1 C -1,1 C
24.02.2013 11:16 1,1 C 92 % 1015,7 hPa 0,0 l/m 3,6 km/h (1 Bft) NO 45 -0,1 C 1,1 C
24.02.2013 11:21 1,1 C 92 % 1015,7 hPa 0,0 l/m 4,7 km/h (1 Bft) O-NO 67 -0,1 C -0,2 C
24.02.2013 11:26 1,1 C 92 % 1015,7 hPa 0,0 l/m 4,7 km/h (1 Bft) NO 45 -0,1 C -0,2 C
24.02.2013 11:31 1,1 C 92 % 1015,7 hPa 0,0 l/m 7,2 km/h (2 Bft) NO 45 -0,1 C -1,2 C
24.02.2013 11:36 1,1 C 92 % 1015,7 hPa 0,0 l/m 4,7 km/h (1 Bft) NO 45 -0,1 C -0,2 C
24.02.2013 11:41 1,3 C 92 % 1015,8 hPa 0,0 l/m 3,6 km/h (1 Bft) NO 45 0,1 C 1,3 C
24.02.2013 11:46 1,3 C 92 % 1015,8 hPa 0,0 l/m 4,7 km/h (1 Bft) O-NO 67 0,1 C 0,0 C
24.02.2013 11:51 1,3 C 92 % 1015,8 hPa 0,0 l/m 4,7 km/h (1 Bft) N-NO 22 0,1 C 0,0 C
24.02.2013 11:56 1,3 C 92 % 1015,7 hPa 0,0 l/m 7,6 km/h (2 Bft) NO 45 0,1 C -1,1 C
24.02.2013 12:01 1,3 C 91 % 1015,7 hPa 0,0 l/m 5,8 km/h (2 Bft) NO 45 -0,0 C -0,5 C
24.02.2013 12:06 1,3 C 91 % 1015,7 hPa 0,0 l/m 3,2 km/h (1 Bft) O-NO 67 -0,0 C 1,3 C
24.02.2013 12:11 1,3 C 91 % 1015,8 hPa 0,0 l/m 3,2 km/h (1 Bft) NO 45 -0,0 C 1,3 C
24.02.2013 12:16 1,3 C 91 % 1015,8 hPa 0,0 l/m 4,0 km/h (1 Bft) N-NO 22 -0,0 C 1,3 C
24.02.2013 12:21 1,2 C 91 % 1015,8 hPa 0,0 l/m 3,2 km/h (1 Bft) NO 45 -0,1 C 1,2 C
24.02.2013 12:26 1,2 C 91 % 1015,7 hPa 0,0 l/m 2,9 km/h (1 Bft) NO 45 -0,1 C 1,2 C
24.02.2013 12:31 1,2 C 91 % 1015,6 hPa 0,0 l/m 6,5 km/h (2 Bft) O-NO 67 -0,1 C -0,8 C
24.02.2013 12:36 1,2 C 91 % 1015,5 hPa 0,0 l/m 2,2 km/h (1 Bft) NO 45 -0,1 C 1,2 C
24.02.2013 12:41 1,2 C 91 % 1015,4 hPa 0,0 l/m 13,3 km/h (3 Bft) NO 45 -0,1 C -2,6 C
24.02.2013 12:46 1,3 C 92 % 1015,3 hPa 0,0 l/m 3,6 km/h (1 Bft) O-NO 67 0,1 C 1,3 C
24.02.2013 12:51 1,3 C 92 % 1015,4 hPa 0,0 l/m 8,6 km/h (2 Bft) O-NO 67 0,1 C -1,4 C
24.02.2013 12:56 1,3 C 92 % 1015,3 hPa 0,0 l/m 8,3 km/h (2 Bft) NO 45 0,1 C -1,3 C
24.02.2013 13:01 1,3 C 92 % 1015,2 hPa 0,0 l/m 4,7 km/h (1 Bft) O-NO 67 0,1 C 0,0 C
24.02.2013 13:06 1,3 C 91 % 1015,2 hPa 0,0 l/m 10,8 km/h (2 Bft) NO 45 -0,0 C -2,0 C
24.02.2013 13:11 1,3 C 91 % 1015,3 hPa 0,0 l/m 7,2 km/h (2 Bft) O-NO 67 -0,0 C -1,0 C
24.02.2013 13:16 1,3 C 91 % 1015,3 hPa 0,0 l/m 4,3 km/h (1 Bft) O-NO 67 -0,0 C 1,3 C
24.02.2013 13:21 1,3 C 91 % 1015,3 hPa 0,0 l/m 1,1 km/h (1 Bft) O 90 -0,0 C 1,3 C
24.02.2013 13:26 1,3 C 91 % 1015,4 hPa 0,0 l/m 11,5 km/h (2 Bft) O-NO 67 -0,0 C -2,1 C
24.02.2013 13:31 1,3 C 91 % 1015,5 hPa 0,0 l/m 5,0 km/h (1 Bft) NO 45 -0,0 C -0,1 C
24.02.2013 13:36 1,3 C 91 % 1015,2 hPa 0,0 l/m 2,9 km/h (1 Bft) NO 45 -0,0 C 1,3 C
24.02.2013 13:41 1,3 C 91 % 1015,2 hPa 0,0 l/m 2,2 km/h (1 Bft) NO 45 -0,0 C 1,3 C
24.02.2013 13:46 1,3 C 91 % 1015,3 hPa 0,0 l/m 9,4 km/h (2 Bft) NO 45 -0,0 C -1,6 C
24.02.2013 13:51 1,3 C 91 % 1015,2 hPa 0,0 l/m 4,0 km/h (1 Bft) NO 45 -0,0 C 1,3 C
24.02.2013 13:56 1,3 C 91 % 1015,5 hPa 0,0 l/m 6,5 km/h (2 Bft) O-NO 67 -0,0 C -0,7 C
24.02.2013 14:01 1,2 C 91 % 1015,5 hPa 0,0 l/m 5,4 km/h (1 Bft) O-NO 67 -0,1 C -0,4 C
24.02.2013 14:06 1,2 C 91 % 1015,5 hPa 0,0 l/m 6,1 km/h (2 Bft) N-NO 22 -0,1 C -0,7 C
24.02.2013 14:11 1,1 C 92 % 1015,4 hPa 0,0 l/m 3,6 km/h (1 Bft) NO 45 -0,1 C 1,1 C
24.02.2013 14:16 1,1 C 92 % 1015,2 hPa 0,0 l/m 7,2 km/h (2 Bft) NO 45 -0,1 C -1,2 C
24.02.2013 14:21 1,1 C 92 % 1015,3 hPa 0,0 l/m 6,1 km/h (2 Bft) O-NO 67 -0,1 C -0,8 C
24.02.2013 14:26 1,1 C 92 % 1015,3 hPa 0,0 l/m 6,8 km/h (2 Bft) O-SO 112 -0,1 C -1,1 C
24.02.2013 14:31 1,1 C 92 % 1015,4 hPa 0,0 l/m 10,1 km/h (2 Bft) O-NO 67 -0,1 C -2,0 C
24.02.2013 14:36 1,1 C 92 % 1015,4 hPa 0,0 l/m 9,0 km/h (2 Bft) N-NO 22 -0,1 C -1,7 C
24.02.2013 14:41 1,1 C 92 % 1015,5 hPa 0,0 l/m 8,6 km/h (2 Bft) NO 45 -0,1 C -1,6 C
24.02.2013 14:46 1,1 C 92 % 1015,5 hPa 0,0 l/m 6,5 km/h (2 Bft) NO 45 -0,1 C -0,9 C
24.02.2013 14:51 1,1 C 92 % 1015,6 hPa 0,0 l/m 4,0 km/h (1 Bft) O 90 -0,1 C 1,1 C
24.02.2013 14:56 1,1 C 92 % 1015,6 hPa 0,0 l/m 4,0 km/h (1 Bft) NO 45 -0,1 C 1,1 C
24.02.2013 15:01 1,1 C 92 % 1015,7 hPa 0,0 l/m 8,3 km/h (2 Bft) O-NO 67 -0,1 C -1,5 C
24.02.2013 15:06 1,1 C 92 % 1015,6 hPa 0,0 l/m 4,7 km/h (1 Bft) O-NO 67 -0,1 C -0,2 C
24.02.2013 15:11 1,1 C 92 % 1015,4 hPa 0,0 l/m 4,3 km/h (1 Bft) O-NO 67 -0,1 C 1,1 C
24.02.2013 15:16 1,2 C 92 % 1015,5 hPa 0,0 l/m 5,8 km/h (2 Bft) O-NO 67 0,0 C -0,6 C
24.02.2013 15:21 1,2 C 92 % 1015,5 hPa 0,0 l/m 4,0 km/h (1 Bft) N-NO 22 0,0 C 1,2 C
24.02.2013 15:26 1,2 C 92 % 1015,7 hPa 0,0 l/m 7,6 km/h (2 Bft) NO 45 0,0 C -1,2 C
24.02.2013 15:31 1,1 C 92 % 1015,6 hPa 0,0 l/m 4,3 km/h (1 Bft) NO 45 -0,1 C 1,1 C
24.02.2013 15:36 1,2 C 92 % 1015,6 hPa 0,0 l/m 6,1 km/h (2 Bft) O-NO 67 0,0 C -0,7 C
24.02.2013 15:41 1,1 C 92 % 1015,7 hPa 0,0 l/m 5,8 km/h (2 Bft) O-NO 67 -0,1 C -0,7 C
24.02.2013 15:46 1,1 C 92 % 1015,8 hPa 0,0 l/m 6,5 km/h (2 Bft) O-NO 67 -0,1 C -0,9 C
24.02.2013 15:51 1,1 C 92 % 1015,8 hPa 0,0 l/m 6,1 km/h (2 Bft) NO 45 -0,1 C -0,8 C
24.02.2013 15:56 1,1 C 92 % 1015,8 hPa 0,0 l/m 5,8 km/h (2 Bft) O-NO 67 -0,1 C -0,7 C
24.02.2013 16:01 1,2 C 92 % 1015,8 hPa 0,0 l/m 6,5 km/h (2 Bft) O 90 0,0 C -0,8 C
24.02.2013 16:06 1,1 C 92 % 1016,0 hPa 0,0 l/m 8,3 km/h (2 Bft) N-NO 22 -0,1 C -1,5 C
24.02.2013 16:11 1,2 C 92 % 1016,0 hPa 0,0 l/m 4,3 km/h (1 Bft) NO 45 0,0 C 1,2 C
24.02.2013 16:16 1,2 C 92 % 1016,0 hPa 0,0 l/m 4,7 km/h (1 Bft) NO 45 0,0 C -0,1 C
24.02.2013 16:21 1,2 C 92 % 1015,8 hPa 0,0 l/m 5,8 km/h (2 Bft) O-NO 67 0,0 C -0,6 C
24.02.2013 16:26 1,2 C 92 % 1015,7 hPa 0,0 l/m 7,6 km/h (2 Bft) NO 45 0,0 C -1,2 C
24.02.2013 16:31 1,2 C 92 % 1015,7 hPa 0,0 l/m 3,2 km/h (1 Bft) O-NO 67 0,0 C 1,2 C
24.02.2013 16:36 1,1 C 92 % 1015,8 hPa 0,0 l/m 3,6 km/h (1 Bft) NO 45 -0,1 C 1,1 C
24.02.2013 16:41 1,1 C 92 % 1015,7 hPa 0,0 l/m 2,5 km/h (1 Bft) NO 45 -0,1 C 1,1 C
24.02.2013 16:46 1,1 C 92 % 1015,7 hPa 0,0 l/m 4,7 km/h (1 Bft) O-NO 67 -0,1 C -0,2 C
24.02.2013 16:51 1,1 C 92 % 1015,7 hPa 0,0 l/m 5,8 km/h (2 Bft) NO 45 -0,1 C -0,7 C
24.02.2013 16:56 1,1 C 93 % 1015,9 hPa 0,0 l/m 5,0 km/h (1 Bft) O-SO 112 0,1 C -0,3 C
24.02.2013 17:01 1,1 C 93 % 1016,0 hPa 0,0 l/m 6,8 km/h (2 Bft) O-NO 67 0,1 C -1,1 C
24.02.2013 17:06 1,1 C 93 % 1016,0 hPa 0,0 l/m 7,9 km/h (2 Bft) O-NO 67 0,1 C -1,4 C
24.02.2013 17:11 1,1 C 93 % 1016,0 hPa 0,0 l/m 7,6 km/h (2 Bft) O-NO 67 0,1 C -1,3 C
24.02.2013 17:16 1,1 C 93 % 1016,0 hPa 0,0 l/m 7,2 km/h (2 Bft) N 360 0,1 C -1,2 C
24.02.2013 17:21 1,1 C 93 % 1016,1 hPa 0,0 l/m 3,6 km/h (1 Bft) NO 45 0,1 C 1,1 C
24.02.2013 17:26 1,1 C 93 % 1016,2 hPa 0,0 l/m 9,7 km/h (2 Bft) O-SO 112 0,1 C -1,9 C
24.02.2013 17:31 1,1 C 93 % 1016,2 hPa 0,0 l/m 2,2 km/h (1 Bft) O-NO 67 0,1 C 1,1 C
24.02.2013 17:36 1,1 C 93 % 1016,3 hPa 0,0 l/m 8,6 km/h (2 Bft) NO 45 0,1 C -1,6 C
24.02.2013 17:41 1,1 C 93 % 1016,5 hPa 0,0 l/m 6,1 km/h (2 Bft) O-NO 67 0,1 C -0,8 C
24.02.2013 17:46 1,1 C 93 % 1016,5 hPa 0,0 l/m 5,0 km/h (1 Bft) O-NO 67 0,1 C -0,3 C
24.02.2013 17:51 1,1 C 93 % 1016,6 hPa 0,0 l/m 4,0 km/h (1 Bft) NO 45 0,1 C 1,1 C
24.02.2013 17:56 1,1 C 93 % 1016,8 hPa 0,0 l/m 3,2 km/h (1 Bft) O 90 0,1 C 1,1 C
24.02.2013 18:01 1,1 C 93 % 1016,9 hPa 0,0 l/m 0,0 km/h (0 Bft) O-SO 112 0,1 C 1,1 C
24.02.2013 18:06 1,1 C 93 % 1016,9 hPa 0,0 l/m 6,1 km/h (2 Bft) O-SO 112 0,1 C -0,8 C
24.02.2013 18:11 1,1 C 93 % 1017,1 hPa 0,0 l/m 0,0 km/h (0 Bft) NO 45 0,1 C 1,1 C
24.02.2013 18:16 1,1 C 93 % 1017,0 hPa 0,0 l/m 5,0 km/h (1 Bft) O-NO 67 0,1 C -0,3 C
24.02.2013 18:21 1,1 C 93 % 1017,1 hPa 0,0 l/m 0,0 km/h (0 Bft) O-NO 67 0,1 C 1,1 C
24.02.2013 18:26 1,1 C 93 % 1017,1 hPa 0,0 l/m 4,7 km/h (1 Bft) O-SO 112 0,1 C -0,2 C
24.02.2013 18:31 1,1 C 93 % 1017,2 hPa 0,0 l/m 5,0 km/h (1 Bft) O-NO 67 0,1 C -0,3 C
24.02.2013 18:36 1,1 C 93 % 1017,3 hPa 0,0 l/m 0,0 km/h (0 Bft) O-SO 112 0,1 C 1,1 C
24.02.2013 18:41 1,1 C 93 % 1017,5 hPa 0,0 l/m 0,0 km/h (0 Bft) NO 45 0,1 C 1,1 C
24.02.2013 18:46 1,1 C 93 % 1017,5 hPa 0,0 l/m 3,6 km/h (1 Bft) NO 45 0,1 C 1,1 C
24.02.2013 18:51 1,2 C 93 % 1017,5 hPa 0,0 l/m 4,0 km/h (1 Bft) NO 45 0,2 C 1,2 C
24.02.2013 18:56 1,2 C 93 % 1017,5 hPa 0,0 l/m 5,4 km/h (1 Bft) O 90 0,2 C -0,4 C
24.02.2013 19:01 1,2 C 93 % 1017,6 hPa 0,0 l/m 6,5 km/h (2 Bft) O-NO 67 0,2 C -0,8 C
24.02.2013 19:06 1,2 C 93 % 1017,7 hPa 0,0 l/m 2,5 km/h (1 Bft) O-NO 67 0,2 C 1,2 C
24.02.2013 19:11 1,2 C 93 % 1017,8 hPa 0,0 l/m 0,0 km/h (0 Bft) O-NO 67 0,2 C 1,2 C
24.02.2013 19:16 1,2 C 93 % 1017,8 hPa 0,0 l/m 6,8 km/h (2 Bft) O-NO 67 0,2 C -0,9 C
24.02.2013 19:21 1,1 C 93 % 1017,8 hPa 0,0 l/m 6,5 km/h (2 Bft) O-NO 67 0,1 C -0,9 C
24.02.2013 19:26 1,1 C 93 % 1017,8 hPa 0,0 l/m 5,8 km/h (2 Bft) O 90 0,1 C -0,7 C
24.02.2013 19:31 1,1 C 93 % 1017,7 hPa 0,0 l/m 2,2 km/h (1 Bft) O-NO 67 0,1 C 1,1 C
24.02.2013 19:36 1,1 C 93 % 1017,8 hPa 0,0 l/m 4,3 km/h (1 Bft) O 90 0,1 C 1,1 C
24.02.2013 19:41 1,1 C 93 % 1017,9 hPa 0,0 l/m 6,1 km/h (2 Bft) O-NO 67 0,1 C -0,8 C
24.02.2013 19:46 1,1 C 93 % 1017,8 hPa 0,0 l/m 6,5 km/h (2 Bft) O-SO 112 0,1 C -0,9 C
24.02.2013 19:51 1,1 C 93 % 1017,9 hPa 0,0 l/m 2,9 km/h (1 Bft) O-SO 112 0,1 C 1,1 C
24.02.2013 19:56 1,1 C 93 % 1017,8 hPa 0,0 l/m 8,3 km/h (2 Bft) O 90 0,1 C -1,5 C
24.02.2013 20:01 1,1 C 93 % 1017,8 hPa 0,0 l/m 5,4 km/h (1 Bft) S-SO 157 0,1 C -0,5 C
24.02.2013 20:06 1,1 C 93 % 1017,8 hPa 0,0 l/m 4,0 km/h (1 Bft) O-NO 67 0,1 C 1,1 C
24.02.2013 20:11 1,1 C 93 % 1017,7 hPa 0,0 l/m 0,0 km/h (0 Bft) O-NO 67 0,1 C 1,1 C
24.02.2013 20:16 1,1 C 93 % 1017,8 hPa 0,0 l/m 3,6 km/h (1 Bft) NO 45 0,1 C 1,1 C
24.02.2013 20:21 1,1 C 93 % 1018,0 hPa 0,0 l/m 10,1 km/h (2 Bft) O-NO 67 0,1 C -2,0 C
24.02.2013 20:26 1,1 C 93 % 1018,1 hPa 0,0 l/m 4,7 km/h (1 Bft) O-NO 67 0,1 C -0,2 C
24.02.2013 20:31 1,1 C 93 % 1018,1 hPa 0,0 l/m 1,8 km/h (1 Bft) O-NO 67 0,1 C 1,1 C
24.02.2013 20:36 1,1 C 94 % 1018,2 hPa 0,0 l/m 6,5 km/h (2 Bft) NO 45 0,2 C -0,9 C
24.02.2013 20:41 1,1 C 94 % 1018,4 hPa 0,0 l/m 5,8 km/h (2 Bft) N-NO 22 0,2 C -0,7 C
24.02.2013 20:46 1,1 C 94 % 1018,4 hPa 0,0 l/m 6,1 km/h (2 Bft) O-NO 67 0,2 C -0,8 C
24.02.2013 20:51 1,1 C 94 % 1018,5 hPa 0,0 l/m 0,0 km/h (0 Bft) O-SO 112 0,2 C 1,1 C
24.02.2013 20:56 1,1 C 94 % 1018,5 hPa 0,0 l/m 5,8 km/h (2 Bft) O-NO 67 0,2 C -0,7 C
24.02.2013 21:01 1,1 C 94 % 1018,4 hPa 0,0 l/m 3,2 km/h (1 Bft) O-NO 67 0,2 C 1,1 C
24.02.2013 21:06 1,1 C 94 % 1018,5 hPa 0,0 l/m 7,2 km/h (2 Bft) O-NO 67 0,2 C -1,2 C
24.02.2013 21:11 1,1 C 94 % 1018,6 hPa 0,0 l/m 7,2 km/h (2 Bft) O-NO 67 0,2 C -1,2 C
24.02.2013 21:16 1,1 C 94 % 1018,6 hPa 0,0 l/m 2,2 km/h (1 Bft) NO 45 0,2 C 1,1 C
24.02.2013 21:21 1,1 C 94 % 1018,8 hPa 0,0 l/m 5,0 km/h (1 Bft) O 90 0,2 C -0,3 C
24.02.2013 21:26 1,1 C 94 % 1018,9 hPa 0,0 l/m 4,3 km/h (1 Bft) O 90 0,2 C 1,1 C
24.02.2013 21:31 1,1 C 94 % 1018,9 hPa 0,0 l/m 7,2 km/h (2 Bft) O-SO 112 0,2 C -1,2 C
24.02.2013 21:36 1,1 C 94 % 1018,9 hPa 0,0 l/m 6,1 km/h (2 Bft) O-NO 67 0,2 C -0,8 C
24.02.2013 21:41 1,1 C 94 % 1019,0 hPa 0,0 l/m 3,2 km/h (1 Bft) NO 45 0,2 C 1,1 C
24.02.2013 21:46 1,1 C 94 % 1018,9 hPa 0,0 l/m 2,9 km/h (1 Bft) O-NO 67 0,2 C 1,1 C
24.02.2013 21:51 1,1 C 94 % 1018,9 hPa 0,0 l/m 6,8 km/h (2 Bft) NO 45 0,2 C -1,1 C
24.02.2013 21:56 1,1 C 94 % 1018,9 hPa 0,0 l/m 2,5 km/h (1 Bft) NO 45 0,2 C 1,1 C
24.02.2013 22:01 1,1 C 94 % 1019,0 hPa 0,0 l/m 1,4 km/h (1 Bft) NO 45 0,2 C 1,1 C
24.02.2013 22:06 1,1 C 94 % 1018,9 hPa 0,0 l/m 8,3 km/h (2 Bft) N-NO 22 0,2 C -1,5 C
24.02.2013 22:11 1,1 C 94 % 1019,1 hPa 0,0 l/m 8,3 km/h (2 Bft) O-NO 67 0,2 C -1,5 C
24.02.2013 22:16 1,2 C 94 % 1019,2 hPa 0,0 l/m 7,2 km/h (2 Bft) NO 45 0,3 C -1,1 C
24.02.2013 22:21 1,2 C 94 % 1019,2 hPa 0,0 l/m 4,7 km/h (1 Bft) O-NO 67 0,3 C -0,1 C
24.02.2013 22:26 1,2 C 94 % 1019,2 hPa 0,0 l/m 2,9 km/h (1 Bft) O 90 0,3 C 1,2 C
24.02.2013 22:31 1,2 C 94 % 1019,2 hPa 0,0 l/m 3,6 km/h (1 Bft) O-NO 67 0,3 C 1,2 C
24.02.2013 22:36 1,2 C 94 % 1019,2 hPa 0,0 l/m 2,9 km/h (1 Bft) NO 45 0,3 C 1,2 C
24.02.2013 22:41 1,2 C 94 % 1019,1 hPa 0,0 l/m 5,4 km/h (1 Bft) O-NO 67 0,3 C -0,4 C
24.02.2013 22:46 1,2 C 94 % 1019,2 hPa 0,0 l/m 5,8 km/h (2 Bft) O-NO 67 0,3 C -0,6 C
24.02.2013 22:51 1,2 C 94 % 1019,4 hPa 0,0 l/m 6,1 km/h (2 Bft) O-NO 67 0,3 C -0,7 C
24.02.2013 22:56 1,2 C 94 % 1019,3 hPa 0,0 l/m 7,6 km/h (2 Bft) O-NO 67 0,3 C -1,2 C
24.02.2013 23:01 1,2 C 94 % 1019,5 hPa 0,0 l/m 8,6 km/h (2 Bft) O-NO 67 0,3 C -1,5 C
24.02.2013 23:06 1,2 C 94 % 1019,3 hPa 0,0 l/m 2,9 km/h (1 Bft) NO 45 0,3 C 1,2 C
24.02.2013 23:11 1,2 C 94 % 1019,4 hPa 0,0 l/m 6,5 km/h (2 Bft) O 90 0,3 C -0,8 C
24.02.2013 23:16 1,3 C 95 % 1019,3 hPa 0,0 l/m 0,0 km/h (0 Bft) O-NO 67 0,6 C 1,3 C
24.02.2013 23:21 1,3 C 95 % 1019,6 hPa 0,0 l/m 3,6 km/h (1 Bft) NO 45 0,6 C 1,3 C
24.02.2013 23:26 1,3 C 95 % 1019,7 hPa 0,0 l/m 9,0 km/h (2 Bft) O-NO 67 0,6 C -1,5 C
24.02.2013 23:31 1,3 C 95 % 1019,8 hPa 0,0 l/m 0,0 km/h (0 Bft) NO 45 0,6 C 1,3 C
24.02.2013 23:36 1,3 C 95 % 1019,7 hPa 0,0 l/m 2,5 km/h (1 Bft) O-NO 67 0,6 C 1,3 C
24.02.2013 23:41 1,3 C 95 % 1019,8 hPa 0,0 l/m 2,9 km/h (1 Bft) NO 45 0,6 C 1,3 C
24.02.2013 23:46 1,3 C 95 % 1019,8 hPa 0,0 l/m 1,8 km/h (1 Bft) NO 45 0,6 C 1,3 C
24.02.2013 23:51 1,3 C 95 % 1019,9 hPa 0,0 l/m 4,3 km/h (1 Bft) O-NO 67 0,6 C 1,3 C
24.02.2013 23:56 1,3 C 95 % 1020,0 hPa 0,0 l/m 10,1 km/h (2 Bft) O-NO 67 0,6 C -1,8 C
_ Min-Zeit 00:01 03:16 07:31 - 18:01 - - 00:01 01:51
Minimum _ -0,9 C 90 % 1014,5 hPa - 0,0 km/h (0 Bft) - - -2,2 C -5,4 C
_ Max-Zeit 11:41 23:16 23:56 00:01 01:51 - - 23:16 11:41
Maximum _ 1,3 C 95 % 1020,0 hPa 0,0 l/m 15,8 km/h
O-NO (3 Bft)
- - 0,6 C 1,3 C
Durchschnitt _ 0,6 C 92 % 1016,1 hPa #0,0 l/m 5,7 km/h (1 Bft) O-NO - -0,5 C -0,9 C
(c) by David Heller